Time;durP1;ratioP1;P1;durP2;ratioP2;P2;SDS_P1;SDS_P2;PMS_P1;PMS_P2;Temp;Humidity;BMP_temperature;BMP_pressure;BME280_temperature;BME280_humidity;BME280_pressure;Samples;Min_cycle;Max_cycle;Signal;HPM_P1;HPM_P2
2022/04/15 00:01:20;;;;;;;0.60;0.60;;;12.50;99.90;12.10;102312.00;;;;5051263;28;20197;-67
2022/04/15 00:03:46;;;;;;;0.60;0.60;;;12.30;99.90;12.30;102314.00;;;;5034389;28;20918;-67
2022/04/15 00:06:15;;;;;;;2.20;2.10;;;12.20;99.90;12.50;102317.00;;;;5050861;28;20167;-67
2022/04/15 00:08:44;;;;;;;0.90;0.90;;;12.20;99.90;12.50;102318.00;;;;5033412;28;20257;-67
2022/04/15 00:11:10;;;;;;;0.80;0.80;;;12.30;99.90;12.20;102318.00;;;;5034364;28;20203;-66
2022/04/15 00:13:41;;;;;;;0.60;0.60;;;12.20;99.90;12.00;102310.00;;;;5050872;28;20245;-66
2022/04/15 00:16:28;;;;;;;0.70;0.70;;;12.00;99.90;12.00;102301.00;;;;5050599;28;20191;-67
2022/04/15 00:18:58;;;;;;;0.70;0.70;;;11.90;99.90;11.70;102310.00;;;;5034712;28;20614;-67
2022/04/15 00:21:29;;;;;;;0.80;0.80;;;11.70;99.90;11.90;102302.00;;;;5051040;28;20592;-67
2022/04/15 00:23:57;;;;;;;0.73;0.73;;;11.60;99.90;11.80;102309.00;;;;5033278;28;20177;-67
2022/04/15 00:26:23;;;;;;;2.00;1.90;;;11.50;99.90;12.00;102310.00;;;;5049663;28;20197;-66
2022/04/15 00:28:52;;;;;;;0.73;0.73;;;11.60;99.90;11.80;102313.00;;;;5050376;28;20547;-66
2022/04/15 00:31:23;;;;;;;1.03;1.03;;;11.60;99.90;12.10;102314.00;;;;5050430;28;20220;-66
2022/04/15 00:33:54;;;;;;;0.70;0.70;;;11.70;99.90;11.90;102317.00;;;;5049324;28;20189;-67
2022/04/15 00:36:23;;;;;;;0.70;0.70;;;11.70;99.90;11.80;102310.00;;;;5035187;28;20183;-67
2022/04/15 00:38:51;;;;;;;2.53;1.97;;;11.70;99.90;12.30;102313.00;;;;5032860;28;20538;-66
2022/04/15 00:41:20;;;;;;;1.17;1.17;;;11.80;99.90;12.50;102315.00;;;;5033581;28;20627;-66
2022/04/15 00:43:58;;;;;;;0.77;0.77;;;12.10;99.90;12.30;102311.00;;;;5048139;28;20190;-67
2022/04/15 00:46:29;;;;;;;0.90;0.90;;;12.20;99.90;12.30;102312.00;;;;5049884;28;20186;-67
2022/04/15 00:48:57;;;;;;;2.20;2.10;;;12.20;99.90;12.40;102309.00;;;;5049123;28;20207;-66
2022/04/15 00:51:23;;;;;;;1.47;1.47;;;12.20;99.90;12.30;102322.00;;;;5050593;28;20267;-66
2022/04/15 00:53:53;;;;;;;0.60;0.60;;;12.20;99.90;12.40;102319.00;;;;5047986;28;20592;-67
2022/04/15 00:56:20;;;;;;;0.60;0.60;;;12.20;99.90;12.30;102292.00;;;;5048634;28;20177;-67
2022/04/15 00:58:51;;;;;;;0.60;0.60;;;12.10;99.90;12.20;102318.00;;;;5050056;28;20276;-66
2022/04/15 01:01:19;;;;;;;1.00;1.00;;;12.10;99.90;12.20;102327.00;;;;5049575;28;20210;-66
2022/04/15 01:03:49;;;;;;;3.07;2.97;;;12.00;99.90;12.30;102323.00;;;;5049335;28;20187;-66
2022/04/15 01:06:17;;;;;;;1.37;1.37;;;12.10;99.90;12.30;102313.00;;;;5049055;28;20175;-67
2022/04/15 01:08:44;;;;;;;0.60;0.60;;;12.10;99.90;12.20;102269.00;;;;5050285;28;20200;-66
2022/04/15 01:11:15;;;;;;;0.83;0.83;;;12.00;99.90;12.00;102288.00;;;;5033411;28;20590;-66
2022/04/15 01:13:45;;;;;;;0.63;0.63;;;11.80;99.90;11.80;102328.00;;;;5049125;28;20230;-67
2022/04/15 01:16:15;;;;;;;1.97;1.87;;;11.70;99.90;11.90;102317.00;;;;5049601;28;20180;-66
2022/04/15 01:18:40;;;;;;;3.07;2.97;;;11.70;99.90;12.20;102318.00;;;;5048618;28;20202;-66
2022/04/15 01:21:13;;;;;;;0.60;0.60;;;11.90;99.90;11.80;102330.00;;;;5034040;28;20187;-66
2022/04/15 01:23:47;;;;;;;0.70;0.70;;;11.70;99.90;11.80;102297.00;;;;5048904;28;20264;-66
2022/04/15 01:26:17;;;;;;;0.90;0.90;;;11.60;99.90;11.20;102330.00;;;;5049156;28;20217;-66
2022/04/15 01:28:46;;;;;;;0.60;0.60;;;11.40;99.90;10.60;102339.00;;;;5049101;28;20194;-67
2022/04/15 01:31:17;;;;;;;0.80;0.80;;;11.00;99.90;10.50;102339.00;;;;5049449;28;20209;-67
2022/04/15 01:33:43;;;;;;;0.50;0.50;;;10.90;99.90;11.30;102351.00;;;;5048346;28;20694;-67
2022/04/15 01:36:15;;;;;;;3.93;3.63;;;11.00;99.90;11.50;102311.00;;;;5048688;28;20179;-67
2022/04/15 01:38:43;;;;;;;0.67;0.67;;;11.20;99.90;11.70;102343.00;;;;5032998;28;20554;-67
2022/04/15 01:41:09;;;;;;;1.03;1.03;;;11.40;99.90;11.50;102344.00;;;;5047506;28;20196;-67
2022/04/15 01:43:45;;;;;;;0.83;0.83;;;11.40;99.90;11.50;102343.00;;;;5048878;28;20177;-67
2022/04/15 01:46:16;;;;;;;5.73;5.23;;;11.40;99.90;11.80;102346.00;;;;5049088;28;20231;-67
2022/04/15 01:48:44;;;;;;;7.13;1.90;;;11.40;99.90;11.40;102353.00;;;;5048866;28;20634;-67
2022/04/15 01:51:17;;;;;;;1.93;1.83;;;11.40;99.90;11.80;102353.00;;;;5033647;28;20234;-67
2022/04/15 01:53:43;;;;;;;0.50;0.50;;;11.50;99.90;11.90;102315.00;;;;5049053;28;20183;-66
2022/04/15 01:56:14;;;;;;;8.40;2.60;;;11.70;99.90;12.10;102348.00;;;;5048234;28;20231;-67
2022/04/15 01:58:48;;;;;;;0.60;0.60;;;11.80;99.90;11.50;102354.00;;;;5048034;28;20181;-67
2022/04/15 02:01:25;;;;;;;0.70;0.70;;;11.50;99.90;11.90;102362.00;;;;5048075;28;20208;-67
2022/04/15 02:03:56;;;;;;;1.00;1.00;;;11.60;99.90;11.40;102358.00;;;;5048768;28;20185;-67
2022/04/15 02:06:28;;;;;;;1.10;1.10;;;11.40;99.90;11.60;102356.00;;;;5048667;28;20182;-67
2022/04/15 02:08:56;;;;;;;0.53;0.53;;;11.40;99.90;11.80;102362.00;;;;5047537;28;20191;-68
2022/04/15 02:11:22;;;;;;;1.43;1.43;;;11.50;99.90;11.50;102364.00;;;;5031644;28;20259;-67
2022/04/15 02:13:58;;;;;;;0.70;0.70;;;11.40;99.90;11.30;102357.00;;;;5048855;28;20540;-67
2022/04/15 02:16:24;;;;;;;2.17;2.07;;;11.30;99.90;11.50;102354.00;;;;5048778;28;20190;-67
2022/04/15 02:18:59;;;;;;;3.83;3.57;;;11.30;99.90;11.50;102359.00;;;;5048722;28;20644;-67
2022/04/15 02:21:31;;;;;;;2.67;2.50;;;11.30;99.90;11.00;102367.00;;;;5049047;28;20188;-67
2022/04/15 02:24:00;;;;;;;2.60;2.40;;;11.00;99.90;11.30;102324.00;;;;5048106;28;20181;-67
2022/04/15 02:26:29;;;;;;;1.77;1.67;;;11.10;99.90;11.50;102339.00;;;;5048692;28;20328;-67
2022/04/15 02:28:54;;;;;;;4.27;2.30;;;11.20;99.90;11.70;102357.00;;;;5032452;28;20296;-67
2022/04/15 02:31:23;;;;;;;3.57;3.47;;;11.30;99.90;11.40;102354.00;;;;5048119;28;20214;-68
2022/04/15 02:33:53;;;;;;;1.33;1.33;;;11.30;99.90;11.30;102370.00;;;;5033175;28;20227;-67
2022/04/15 02:36:19;;;;;;;0.80;0.80;;;11.20;99.90;11.00;102364.00;;;;5047809;28;20182;-67
2022/04/15 02:38:48;;;;;;;1.63;1.53;;;11.00;99.90;11.40;102368.00;;;;5048064;28;20180;-67
2022/04/15 02:41:15;;;;;;;1.13;1.13;;;11.10;99.90;11.10;102371.00;;;;5047783;28;20181;-67
2022/04/15 02:43:46;;;;;;;0.90;0.87;;;11.00;99.90;10.80;102368.00;;;;5048592;28;20262;-67
2022/04/15 02:46:13;;;;;;;0.70;0.70;;;10.80;99.90;10.90;102378.00;;;;5048119;28;20613;-67
2022/04/15 02:48:42;;;;;;;0.60;0.60;;;10.70;99.90;10.70;102373.00;;;;5048115;28;20234;-67
2022/04/15 02:51:17;;;;;;;0.60;0.60;;;10.70;99.90;10.40;102377.00;;;;5047098;28;20183;-67
2022/04/15 02:53:43;;;;;;;0.70;0.70;;;10.40;99.90;10.30;102382.00;;;;5046711;28;20920;-67
2022/04/15 02:56:14;;;;;;;0.60;0.60;;;10.20;99.90;9.80;102375.00;;;;5047956;28;20185;-67
2022/04/15 02:58:45;;;;;;;0.50;0.50;;;10.00;99.90;10.00;102391.00;;;;5047932;28;20279;-67
2022/04/15 03:01:16;;;;;;;0.60;0.60;;;9.80;99.90;10.20;102390.00;;;;5031598;28;20179;-67
2022/04/15 03:03:52;;;;;;;0.70;0.70;;;9.90;99.90;10.30;102394.00;;;;5048066;28;20188;-67
2022/04/15 03:06:18;;;;;;;1.80;1.70;;;10.00;99.90;10.10;102396.00;;;;5032523;28;20172;-67
2022/04/15 03:08:46;;;;;;;0.97;0.97;;;10.00;99.90;10.30;102385.00;;;;5048048;28;20259;-67
2022/04/15 03:11:12;;;;;;;0.70;0.70;;;10.00;99.90;10.20;102387.00;;;;5047844;28;20206;-67
2022/04/15 03:13:40;;;;;;;0.70;0.70;;;9.90;99.90;10.20;102375.00;;;;5048155;28;20179;-67
2022/04/15 03:16:11;;;;;;;0.90;0.90;;;10.00;99.90;10.30;102397.00;;;;5047389;28;20205;-67
2022/04/15 03:18:42;;;;;;;0.80;0.80;;;10.00;99.90;10.10;102390.00;;;;5049894;28;20210;-67
2022/04/15 03:21:10;;;;;;;0.77;0.77;;;9.90;99.90;9.70;102384.00;;;;5034052;28;20188;-67
2022/04/15 03:23:36;;;;;;;0.77;0.77;;;9.70;99.90;9.90;102384.00;;;;5052056;28;20230;-66
2022/04/15 03:26:05;;;;;;;0.80;0.80;;;9.70;99.90;10.40;102378.00;;;;5051745;28;20179;-67
2022/04/15 03:28:33;;;;;;;0.80;0.80;;;9.90;99.90;10.40;102382.00;;;;5050482;28;20175;-67
2022/04/15 03:31:01;;;;;;;1.40;1.40;;;10.10;99.90;10.80;102372.00;;;;5051413;28;20275;-67
2022/04/15 03:33:30;;;;;;;1.03;1.03;;;10.30;99.90;10.70;102368.00;;;;5035516;28;20194;-66
2022/04/15 03:35:56;;;;;;;1.80;1.70;;;10.40;99.90;10.70;102332.00;;;;5051137;28;20221;-66
2022/04/15 03:38:25;;;;;;;0.70;0.70;;;10.50;99.90;10.00;102369.00;;;;5050697;28;20172;-67
2022/04/15 03:41:01;;;;;;;2.80;2.70;;;10.30;99.90;10.50;102381.00;;;;5035339;28;20179;-67
2022/04/15 03:43:30;;;;;;;1.30;1.30;;;10.20;99.90;10.70;102376.00;;;;5036039;28;20165;-67
2022/04/15 03:45:59;;;;;;;1.40;1.40;;;10.40;99.90;10.70;102375.00;;;;5036231;28;20173;-67
2022/04/15 03:48:25;;;;;;;3.70;1.83;;;10.50;99.90;10.80;102386.00;;;;5051039;28;20184;-66
2022/04/15 03:50:56;;;;;;;3.40;3.20;;;10.60;99.90;10.80;102334.00;;;;5051366;28;20180;-67
2022/04/15 03:53:22;;;;;;;3.13;3.03;;;10.60;99.90;10.90;102388.00;;;;5049358;28;20395;-67
2022/04/15 03:55:48;;;;;;;0.70;0.70;;;10.70;99.90;10.70;102386.00;;;;5034835;28;20270;-67
2022/04/15 03:58:17;;;;;;;0.90;0.90;;;10.70;99.90;10.80;102392.00;;;;5050338;28;20185;-67
2022/04/15 04:00:46;;;;;;;0.70;0.70;;;10.60;99.90;10.50;102367.00;;;;5051128;28;20184;-67
2022/04/15 04:03:15;;;;;;;1.60;1.47;;;10.50;99.90;10.80;102394.00;;;;5048778;28;20661;-67
2022/04/15 04:05:42;;;;;;;0.60;0.60;;;10.60;99.90;10.50;102387.00;;;;5050141;28;20179;-67
2022/04/15 04:08:11;;;;;;;0.67;0.67;;;10.50;99.90;10.50;102383.00;;;;5049859;28;20179;-67
2022/04/15 04:10:37;;;;;;;3.13;2.27;;;10.50;99.90;10.50;102388.00;;;;5035831;28;20174;-67
2022/04/15 04:13:06;;;;;;;2.90;2.70;;;10.40;99.90;10.70;102390.00;;;;5050346;28;20282;-67
2022/04/15 04:15:32;;;;;;;1.70;1.70;;;10.50;99.90;10.60;102391.00;;;;5035614;28;20163;-67
2022/04/15 04:18:03;;;;;;;1.40;1.40;;;10.50;99.90;10.70;102390.00;;;;5050664;28;20242;-67
2022/04/15 04:20:32;;;;;;;0.70;0.70;;;10.50;99.90;10.50;102388.00;;;;5050482;28;20270;-67
2022/04/15 04:23:02;;;;;;;0.70;0.70;;;10.50;99.90;10.10;102388.00;;;;5049760;28;20175;-67
2022/04/15 04:25:33;;;;;;;0.70;0.70;;;10.20;99.90;10.30;102387.00;;;;5034983;28;20190;-67
2022/04/15 04:28:05;;;;;;;0.70;0.70;;;10.20;99.90;10.30;102395.00;;;;5034923;28;20178;-67
2022/04/15 04:30:33;;;;;;;0.80;0.80;;;10.10;99.90;10.10;102407.00;;;;5050415;28;20179;-67
2022/04/15 04:33:04;;;;;;;0.80;0.80;;;10.00;99.90;9.90;102399.00;;;;5048370;28;20689;-67
2022/04/15 04:35:30;;;;;;;3.63;2.57;;;9.90;99.90;10.30;102412.00;;;;5051159;28;20278;-67
2022/04/15 04:37:56;;;;;;;1.17;1.13;;;10.00;99.90;10.30;102371.00;;;;5049831;28;20265;-67
2022/04/15 04:40:26;;;;;;;0.70;0.70;;;10.10;99.90;9.90;102411.00;;;;5049475;28;20174;-67
2022/04/15 04:42:53;;;;;;;0.70;0.70;;;9.90;99.90;9.60;102415.00;;;;5048622;28;20185;-67
2022/04/15 04:45:19;;;;;;;2.17;2.03;;;9.70;99.90;9.50;102408.00;;;;5034927;28;20548;-67
2022/04/15 04:47:55;;;;;;;0.80;0.80;;;9.50;99.90;9.40;102420.00;;;;5034642;28;20194;-67
2022/04/15 04:50:29;;;;;;;0.80;0.80;;;9.40;99.90;9.10;102427.00;;;;5033579;28;20174;-67
2022/04/15 04:52:58;;;;;;;1.37;1.37;;;9.20;99.90;9.20;102429.00;;;;5041990;28;20605;-67
2022/04/15 04:55:27;;;;;;;0.60;0.60;;;9.10;99.90;9.70;102433.00;;;;5013040;28;20253;-67
2022/04/15 04:57:57;;;;;;;0.77;0.77;;;9.40;99.90;9.90;102414.00;;;;5012717;28;20191;-67
2022/04/15 05:00:29;;;;;;;1.27;1.27;;;9.60;99.90;10.00;102422.00;;;;5015376;28;20191;-67
2022/04/15 05:03:01;;;;;;;0.70;0.70;;;9.80;99.90;9.80;102424.00;;;;5034606;28;20564;-67
2022/04/15 05:05:32;;;;;;;0.57;0.57;;;9.80;99.90;9.30;102434.00;;;;5034729;28;20184;-67
2022/04/15 05:08:01;;;;;;;0.90;0.90;;;9.60;99.90;9.70;102437.00;;;;5048472;28;20186;-67
2022/04/15 05:10:32;;;;;;;0.70;0.70;;;9.50;99.90;9.40;102435.00;;;;5049429;28;20183;-67
2022/04/15 05:12:59;;;;;;;1.37;1.37;;;9.50;99.90;9.50;102444.00;;;;5049404;28;20208;-67
2022/04/15 05:15:28;;;;;;;0.80;0.80;;;9.40;99.90;9.10;102430.00;;;;5049860;28;20175;-67
2022/04/15 05:17:58;;;;;;;0.90;0.90;;;9.20;99.90;9.10;102407.00;;;;5033945;28;20183;-67
2022/04/15 05:20:30;;;;;;;0.80;0.80;;;9.20;99.90;9.10;102430.00;;;;5049813;28;20191;-67
2022/04/15 05:22:55;;;;;;;0.70;0.70;;;9.20;99.90;9.10;102444.00;;;;5049313;28;20191;-67
2022/04/15 05:25:21;;;;;;;0.90;0.90;;;9.20;99.90;9.20;102448.00;;;;5049134;28;20317;-67
2022/04/15 05:27:49;;;;;;;0.90;0.90;;;9.20;99.90;9.60;102451.00;;;;5049149;28;20237;-67
2022/04/15 05:30:18;;;;;;;0.80;0.80;;;9.30;99.90;10.00;102431.00;;;;5034116;28;20186;-67
2022/04/15 05:32:47;;;;;;;0.80;0.80;;;9.60;99.90;10.50;102453.00;;;;5048877;28;20223;-67
2022/04/15 05:35:13;;;;;;;0.60;0.60;;;10.10;99.90;11.20;102458.00;;;;5033174;28;20644;-68
2022/04/15 05:37:42;;;;;;;0.70;0.70;;;10.70;99.90;11.60;102458.00;;;;5048999;28;20265;-67
2022/04/15 05:40:08;;;;;;;0.73;0.73;;;11.20;99.90;11.90;102470.00;;;;5048732;28;20603;-67
2022/04/15 05:42:34;;;;;;;0.90;0.90;;;11.50;99.90;12.10;102461.00;;;;5049133;28;20179;-67
2022/04/15 05:45:00;;;;;;;1.00;1.00;;;11.80;99.90;11.90;102458.00;;;;5047923;28;20186;-67
2022/04/15 05:47:26;;;;;;;1.10;1.10;;;11.80;99.90;11.90;102462.00;;;;5032544;28;20259;-67
2022/04/15 05:49:55;;;;;;;5.93;5.63;;;11.80;99.90;11.90;102443.00;;;;5032715;28;20168;-67
2022/04/15 05:52:23;;;;;;;1.10;1.10;;;11.90;99.90;11.80;102458.00;;;;5033660;28;20209;-67
2022/04/15 05:54:51;;;;;;;0.90;0.90;;;11.80;99.90;12.20;102459.00;;;;5033833;28;20175;-67
2022/04/15 05:57:19;;;;;;;2.27;2.17;;;12.00;99.90;12.70;102450.00;;;;5033838;28;20190;-67
2022/04/15 05:59:45;;;;;;;0.70;0.70;;;12.50;99.90;14.00;102466.00;;;;5032931;28;20208;-67
2022/04/15 06:02:14;;;;;;;0.77;0.77;;;13.40;99.90;15.10;102461.00;;;;5032736;28;20276;-67
2022/04/15 06:04:42;;;;;;;1.03;1.03;;;14.40;99.90;16.60;102462.00;;;;5032343;28;20184;-67
2022/04/15 06:07:11;;;;;;;0.33;0.33;;;15.70;99.90;17.70;102473.00;;;;5033710;28;20249;-67
2022/04/15 06:09:41;;;;;;;2.20;2.10;;;17.00;99.90;18.50;102479.00;;;;5033262;28;20738;-68
2022/04/15 06:12:13;;;;;;;0.40;0.40;;;17.80;99.90;19.40;102516.00;;;;5031269;28;20197;-67
2022/04/15 06:14:41;;;;;;;2.35;2.25;;;18.60;99.90;20.50;102547.00;;;;5033458;28;20581;-67
2022/04/15 06:17:07;;;;;;;0.20;0.20;;;19.40;99.90;20.80;102562.00;;;;5048235;28;20213;-68
2022/04/15 06:19:35;;;;;;;0.20;0.20;;;20.20;99.90;22.10;102551.00;;;;5048871;28;20171;-67
2022/04/15 06:22:07;;;;;;;0.60;0.60;;;20.90;99.90;21.70;102603.00;;;;5033358;28;20183;-68
2022/04/15 06:24:40;;;;;;;0.20;0.20;;;21.30;99.90;22.40;102579.00;;;;5032644;28;20181;-66
2022/04/15 06:27:11;;;;;;;1.85;1.75;;;21.60;99.90;22.70;102621.00;;;;5048463;28;20258;-66
2022/04/15 06:29:48;;;;;;;1.40;1.40;;;21.90;99.90;22.80;102594.00;;;;5047142;28;20644;-67
2022/04/15 06:32:16;;;;;;;0.50;0.50;;;22.00;99.90;20.40;102618.00;;;;5032122;28;20232;-67
2022/04/15 06:34:43;;;;;;;5.47;4.00;;;21.40;99.90;19.30;102605.00;;;;5033116;28;20274;-67
2022/04/15 06:37:12;;;;;;;2.03;1.85;;;20.20;99.90;21.20;102588.00;;;;5048436;28;20174;-66
2022/04/15 06:39:51;;;;;;;3.83;3.53;;;20.30;99.90;20.40;102619.00;;;;5048242;28;20167;-69
2022/04/15 06:42:25;;;;;;;1.98;1.02;;;20.30;99.90;17.60;102571.00;;;;5047383;28;20605;-69
2022/04/15 06:44:51;;;;;;;0.40;0.40;;;18.60;99.90;16.60;102519.00;;;;5048002;28;20179;-67
2022/04/15 06:47:17;;;;;;;1.65;1.02;;;17.70;99.90;17.70;102554.00;;;;5032759;28;20262;-67
2022/04/15 06:49:45;;;;;;;1.70;1.60;;;18.10;99.90;18.50;102565.00;;;;5048198;28;20742;-66
2022/04/15 06:52:12;;;;;;;8.50;5.97;;;18.70;99.90;15.00;102512.00;;;;5047130;28;20224;-66
2022/04/15 06:54:39;;;;;;;2.20;1.88;;;17.10;99.90;16.40;102487.00;;;;5051809;28;20218;-66
2022/04/15 06:57:05;;;;;;;0.30;0.30;;;16.70;99.90;18.80;102547.00;;;;5036887;28;20175;-67
2022/04/15 06:59:31;;;;;;;0.20;0.20;;;18.10;99.90;18.70;102563.00;;;;5052449;28;20180;-67
2022/04/15 07:01:59;;;;;;;2.15;1.95;;;18.50;99.90;15.80;102520.00;;;;5052215;28;20191;-67
2022/04/15 07:04:26;;;;;;;3.92;2.30;;;17.60;99.90;16.20;102489.00;;;;5036837;28;20175;-66
2022/04/15 07:06:51;;;;;;;3.83;2.85;;;16.60;99.90;16.00;102485.00;;;;5052080;28;20641;-67
2022/04/15 07:09:17;;;;;;;1.70;1.60;;;16.90;99.90;15.40;102496.00;;;;5051985;28;20183;-66
2022/04/15 07:11:43;;;;;;;4.00;3.15;;;16.30;99.90;17.40;102517.00;;;;5051873;28;20195;-67
2022/04/15 07:14:09;;;;;;;6.55;1.10;;;17.20;99.90;18.10;102540.00;;;;5034702;28;20190;-67
2022/04/15 07:16:35;;;;;;;1.90;1.15;;;18.00;99.90;16.60;102526.00;;;;5051722;28;20266;-67
2022/04/15 07:19:07;;;;;;;1.95;1.67;;;17.70;99.90;19.30;102567.00;;;;5036663;28;20212;-67
2022/04/15 07:21:41;;;;;;;0.32;0.32;;;18.70;99.90;20.60;102559.00;;;;5051620;28;20292;-67
2022/04/15 07:24:07;;;;;;;0.52;0.52;;;19.70;99.90;20.30;102600.00;;;;5050822;28;20200;-67
2022/04/15 07:26:34;;;;;;;0.30;0.30;;;19.80;99.90;20.00;102608.00;;;;5035238;28;20648;-67
2022/04/15 07:29:00;;;;;;;0.50;0.50;;;19.90;99.90;19.20;102595.00;;;;5028037;28;20629;-67
2022/04/15 07:31:26;;;;;;;0.22;0.22;;;19.30;99.90;20.30;102619.00;;;;5041091;28;20490;-68
2022/04/15 07:33:52;;;;;;;1.42;1.38;;;19.80;99.90;20.90;102635.00;;;;5015620;28;20211;-67
2022/04/15 07:39:07;;;;;;;0.82;0.82;;;20.20;99.90;19.90;102628.00;;;;5048554;28;20588;-67
2022/04/15 07:41:36;;;;;;;0.77;0.77;;;20.00;99.90;19.40;102650.00;;;;5031532;28;20202;-67
2022/04/15 07:44:12;;;;;;;0.10;0.10;;;20.30;99.90;17.40;102557.00;;;;5029537;28;20195;-67
2022/04/15 07:46:39;;;;;;;0.17;0.17;;;18.60;99.90;18.80;102609.00;;;;5048780;28;20236;-68
2022/04/15 07:49:09;;;;;;;2.20;1.48;;;19.00;99.90;18.20;102620.00;;;;5047132;28;20285;-68
2022/04/15 07:51:37;;;;;;;0.45;0.45;;;18.90;99.90;19.80;102621.00;;;;5033025;28;20634;-69
2022/04/15 07:54:05;;;;;;;1.63;1.40;;;19.40;99.90;19.00;102605.00;;;;5034356;28;20315;-69
2022/04/15 07:56:32;;;;;;;1.98;1.98;;;19.70;99.90;19.70;102640.00;;;;5042825;28;20172;-69
2022/04/15 07:58:59;;;;;;;2.03;1.95;;;19.70;99.90;20.60;102667.00;;;;5028400;28;20650;-69
2022/04/15 08:01:27;;;;;;;10.30;5.60;;;20.40;99.90;17.40;102638.00;;;;5062617;28;20261;-64
2022/04/15 08:03:57;;;;;;;9.63;5.03;;;19.50;99.90;16.10;102575.00;;;;5014499;28;20182;-68
2022/04/15 08:06:24;;;;;;;0.10;0.10;;;17.80;99.90;17.80;102578.00;;;;5013757;28;20178;-69
2022/04/15 08:08:55;;;;;;;1.52;1.52;;;17.90;99.90;20.10;102626.00;;;;5014754;28;20172;-69
2022/04/15 08:11:25;;;;;;;5.47;4.00;;;19.20;99.90;18.20;102590.00;;;;5017975;28;20190;-69
2022/04/15 08:13:52;;;;;;;2.00;1.90;;;18.60;99.90;19.50;102638.00;;;;5029220;28;20523;-68
2022/04/15 08:16:18;;;;;;;0.10;0.10;;;19.20;99.90;20.80;102650.00;;;;5015215;28;20702;-67
2022/04/15 08:18:44;;;;;;;8.13;4.57;;;20.00;99.90;18.80;102642.00;;;;5017595;28;20269;-67
2022/04/15 08:21:10;;;;;;;2.08;1.98;;;20.10;99.90;18.20;102615.00;;;;5017687;28;20724;-67
2022/04/15 08:23:43;;;;;;;1.17;0.77;;;19.10;99.90;18.80;102614.00;;;;5017860;28;20186;-68
2022/04/15 08:26:10;;;;;;;5.43;3.90;;;18.90;99.90;17.70;102607.00;;;;5032529;28;20186;-67
2022/04/15 08:28:37;;;;;;;0.60;0.60;;;18.60;99.90;19.20;102628.00;;;;5033886;28;20266;-68
2022/04/15 08:31:03;;;;;;;0.10;0.10;;;18.90;99.90;18.90;102624.00;;;;5024067;28;20671;-69
2022/04/15 08:33:31;;;;;;;1.20;1.10;;;19.10;99.90;19.80;102646.00;;;;5012911;28;20203;-69
2022/04/15 08:36:00;;;;;;;1.95;1.63;;;19.70;99.90;18.20;102597.00;;;;5013162;28;20187;-69
2022/04/15 08:38:32;;;;;;;1.63;1.25;;;19.20;99.90;18.40;102621.00;;;;5030702;28;20176;-69
2022/04/15 08:40:59;;;;;;;0.52;0.52;;;19.00;99.90;18.30;102627.00;;;;5013687;28;20202;-68
2022/04/15 08:43:26;;;;;;;5.57;3.90;;;18.70;99.90;15.30;102543.00;;;;5013357;28;20210;-69
2022/04/15 08:46:05;;;;;;;3.20;2.90;;;17.30;99.90;16.30;102558.00;;;;5013468;28;20274;-70
2022/04/15 08:48:35;;;;;;;2.17;1.98;;;16.80;99.90;17.60;102577.00;;;;5013486;28;20175;-69
2022/04/15 08:51:07;;;;;;;1.60;1.10;;;17.50;99.90;17.40;102587.00;;;;5013523;28;20677;-70
2022/04/15 08:53:42;;;;;;;0.43;0.43;;;18.10;99.90;17.90;102599.00;;;;5012996;28;20195;-70
2022/04/15 08:56:15;;;;;;;4.55;3.10;;;18.10;99.90;17.90;102623.00;;;;5013657;28;20248;-71
2022/04/15 08:58:44;;;;;;;0.70;0.68;;;18.40;99.90;18.00;102606.00;;;;5030095;28;20183;-70
2022/04/15 09:01:10;;;;;;;2.35;1.73;;;18.40;99.90;18.30;102622.00;;;;5023816;28;20188;-70
2022/04/15 09:03:39;;;;;;;9.85;7.15;;;18.70;99.90;16.40;102592.00;;;;5013682;28;20191;-71
2022/04/15 09:06:17;;;;;;;2.58;2.35;;;17.90;99.90;16.50;102581.00;;;;5030277;28;20176;-72
2022/04/15 09:09:02;;;;;;;5.38;4.90;;;17.30;99.90;17.20;102563.00;;;;5015188;28;20199;-70
2022/04/15 09:11:36;;;;;;;11.80;7.80;;;17.60;99.90;16.00;102586.00;;;;5014939;28;20190;-70
2022/04/15 09:14:12;;;;;;;7.20;5.73;;;17.00;99.90;15.90;102599.00;;;;5014316;28;20595;-70
2022/04/15 09:16:48;;;;;;;4.00;3.67;;;16.90;99.90;16.10;102592.00;;;;5029105;28;20204;-70
2022/04/15 09:19:20;;;;;;;4.20;3.63;;;16.70;99.90;15.90;102593.00;;;;5014743;28;20268;-70
2022/04/15 09:21:58;;;;;;;7.70;5.60;;;16.70;99.90;16.70;102605.00;;;;5013374;28;20651;-70
2022/04/15 09:24:34;;;;;;;5.30;3.97;;;17.10;99.90;16.60;102613.00;;;;5029594;28;20186;-71
2022/04/15 09:27:05;;;;;;;2.50;2.40;;;17.30;99.90;17.00;102617.00;;;;5029990;28;20186;-69
2022/04/15 09:29:40;;;;;;;2.00;1.90;;;17.30;99.90;16.70;102609.00;;;;5014462;28;20181;-71
2022/04/15 09:32:09;;;;;;;0.87;0.87;;;17.40;99.90;16.60;102573.00;;;;5012959;28;20225;-70
2022/04/15 09:35:08;;;;;;;0.50;0.50;;;17.40;99.90;16.40;102611.00;;;;5013001;28;20656;-70
2022/04/15 09:37:39;;;;;;;5.10;1.60;;;17.30;99.90;16.00;102572.00;;;;5013201;28;20247;-69
2022/04/15 09:40:25;;;;;;;13.03;6.60;;;16.70;99.90;16.20;102575.00;;;;5012965;28;20542;-68
2022/04/15 09:42:56;;;;;;;7.83;5.00;;;17.00;99.90;17.40;102630.00;;;;5028865;28;20288;-68
2022/04/15 09:45:27;;;;;;;8.07;5.87;;;17.60;99.90;16.10;102581.00;;;;5014196;28;20268;-68
2022/04/15 09:48:25;;;;;;;1.97;0.73;;;17.20;99.90;16.90;102623.00;;;;5029646;28;20248;-68
2022/04/15 09:50:56;;;;;;;4.57;3.87;;;17.10;99.90;16.10;102579.00;;;;5012717;28;20192;-69
2022/04/15 09:53:35;;;;;;;1.87;1.77;;;16.70;99.90;16.00;102608.00;;;;5012940;28;20195;-69
2022/04/15 09:56:03;;;;;;;11.83;9.33;;;16.70;99.90;16.10;102629.00;;;;5029003;28;20259;-68
2022/04/15 09:58:35;;;;;;;8.50;7.03;;;17.00;99.90;16.40;102618.00;;;;5028950;28;20184;-68
2022/04/15 10:01:07;;;;;;;1.33;1.23;;;17.00;99.90;17.00;102578.00;;;;5022278;28;20674;-68
2022/04/15 10:03:40;;;;;;;1.43;0.83;;;17.00;99.90;16.50;102614.00;;;;5032303;28;20212;-68
2022/04/15 10:06:07;;;;;;;5.03;3.73;;;17.10;99.90;16.40;102622.00;;;;5033397;28;20179;-68
2022/04/15 10:08:36;;;;;;;3.50;3.20;;;17.20;99.90;17.20;102627.00;;;;5048689;28;20196;-69
2022/04/15 10:11:02;;;;;;;2.10;1.90;;;17.50;99.90;17.40;102633.00;;;;5048498;28;20174;-69
2022/04/15 10:13:28;;;;;;;3.20;1.95;;;17.90;99.90;17.00;102634.00;;;;5046478;28;20601;-69
2022/04/15 10:15:55;;;;;;;3.33;1.30;;;17.60;99.90;17.00;102642.00;;;;5021686;28;20190;-68
2022/04/15 10:18:23;;;;;;;2.15;2.00;;;17.80;99.90;16.60;102639.00;;;;5012264;28;20183;-68
2022/04/15 10:43:34;;;;;;;4.20;2.25;;;18.70;99.90;18.10;102650.00;;;;5146002;27;1336084;-70
2022/04/15 10:46:14;;;;;;;1.70;1.60;;;18.20;99.90;18.50;102654.00;;;;5136529;27;20227;-69
2022/04/15 10:48:47;;;;;;;2.78;2.53;;;18.60;99.90;18.80;102671.00;;;;5173002;27;20260;-69
2022/04/15 10:51:31;;;;;;;1.27;1.00;;;19.10;99.90;18.40;102681.00;;;;5154490;27;20162;-68
2022/04/15 10:54:35;;;;;;;0.52;0.52;;;19.20;99.90;18.60;102671.00;;;;5154555;27;20178;-69
2022/04/15 10:57:14;;;;;;;2.20;1.85;;;18.60;99.90;19.30;102686.00;;;;5149107;27;20646;-70
2022/04/15 11:02:48;;;;;;;0.88;0.82;;;18.60;99.90;17.30;102661.00;;;;5160997;27;20571;-75
2022/04/15 11:05:30;;;;;;;5.57;3.33;;;18.10;99.90;17.70;102677.00;;;;5133603;27;20190;-69
2022/04/15 11:08:15;;;;;;;9.88;5.50;;;18.30;99.90;16.60;102655.00;;;;5133062;27;20203;-70
2022/04/15 11:11:01;;;;;;;1.23;0.55;;;17.90;99.90;16.80;102645.00;;;;5132817;27;20643;-69
2022/04/15 11:13:39;;;;;;;0.60;0.60;;;17.40;99.90;17.00;102644.00;;;;5128545;28;20647;-69
2022/04/15 11:16:16;;;;;;;0.20;0.20;;;17.40;99.90;16.70;102643.00;;;;5151542;27;20178;-70
2022/04/15 11:18:58;;;;;;;0.10;0.10;;;17.40;99.90;18.60;102634.00;;;;5150649;27;20220;-70
2022/04/15 11:21:30;;;;;;;7.22;1.95;;;18.20;99.90;17.60;102674.00;;;;5132039;27;20200;-70
2022/04/15 11:24:04;;;;;;;1.08;1.02;;;18.30;99.90;17.30;102673.00;;;;5132908;27;20206;-70
2022/04/15 11:26:31;;;;;;;0.65;0.65;;;18.10;99.90;17.20;102645.00;;;;5114725;27;20642;-70
2022/04/15 11:29:03;;;;;;;2.80;2.53;;;17.80;99.90;18.20;102666.00;;;;5114836;27;20182;-74